createdAt,value
2022-08-18T00:00:12.964Z,98971.75
2022-08-18T00:03:27.180Z,98969.78
2022-08-18T00:06:16.941Z,98972.19
2022-08-18T00:09:08.844Z,98972.69
2022-08-18T00:11:57.562Z,98977.69
2022-08-18T00:14:46.648Z,98972.97
2022-08-18T00:17:35.544Z,98981.38
2022-08-18T00:20:25.067Z,98972.59
2022-08-18T00:23:13.508Z,98966.44
2022-08-18T00:26:00.697Z,98966.06
2022-08-18T00:28:49.240Z,98967.69
2022-08-18T00:31:37.155Z,98964.91
2022-08-18T00:34:24.403Z,98969.94
2022-08-18T00:37:12.021Z,98970.59
2022-08-18T00:39:58.959Z,98965.38
2022-08-18T00:42:50.847Z,98974.63
2022-08-18T00:45:42.749Z,98968.59
2022-08-18T00:48:30.322Z,98970.22
2022-08-18T00:51:22.161Z,98974.44
2022-08-18T00:54:15.394Z,98979.63
2022-08-18T00:57:07.637Z,98957.88
2022-08-18T01:00:07.906Z,98942.28
2022-08-18T01:03:02.278Z,98946.66
2022-08-18T01:05:54.886Z,98958.84
2022-08-18T01:08:42.182Z,98958.03
2022-08-18T01:11:30.339Z,98955.44
2022-08-18T01:14:18.356Z,98963.06
2022-08-18T01:17:23.263Z,98961.44
2022-08-18T01:20:34.520Z,98957.03
2022-08-18T01:23:25.046Z,98961.44
2022-08-18T01:26:13.478Z,98977.03
2022-08-18T01:29:11.899Z,98979.63
2022-08-18T01:32:06.582Z,98965.81
2022-08-18T01:34:54.674Z,98970.22
2022-08-18T01:37:42.629Z,98976.22
2022-08-18T01:41:25.813Z,98965.03
2022-08-18T01:43:39.854Z,98952.22
2022-08-18T01:46:29.025Z,98955.59
2022-08-18T01:49:18.286Z,98952.22
2022-08-18T01:52:08.177Z,98963.41
2022-08-18T01:54:57.864Z,98957.41
2022-08-18T01:57:46.670Z,98958.22
2022-08-18T02:00:36.183Z,98963.41
2022-08-18T02:03:27.313Z,98960.00
2022-08-18T02:06:18.566Z,98957.41
2022-08-18T02:09:23.718Z,98955.00
2022-08-18T02:12:12.122Z,98950.13
2022-08-18T02:15:00.696Z,98949.34
2022-08-18T02:17:48.294Z,98941.53
2022-08-18T02:20:35.700Z,98949.34
2022-08-18T02:23:23.416Z,98947.53
2022-08-18T02:26:13.951Z,98949.34
2022-08-18T02:29:01.422Z,98943.34
2022-08-18T02:31:49.897Z,98945.94
2022-08-18T02:34:37.778Z,98946.91
2022-08-18T02:37:25.341Z,98942.69
2022-08-18T02:40:15.494Z,98950.47
2022-08-18T02:43:09.329Z,98940.09
2022-08-18T02:45:57.101Z,98945.28
2022-08-18T02:48:45.941Z,98940.91
2022-08-18T02:51:33.448Z,98940.09
2022-08-18T02:54:23.210Z,98938.47
2022-08-18T02:57:12.600Z,98943.66
2022-08-18T03:00:01.434Z,98946.28
2022-08-18T03:02:49.532Z,98935.09
2022-08-18T03:05:38.068Z,98936.06
2022-08-18T03:08:25.139Z,98936.88
2022-08-18T03:11:12.695Z,98932.47
2022-08-18T03:14:00.373Z,98937.69
2022-08-18T03:16:54.707Z,98942.06
2022-08-18T03:19:43.949Z,98933.47
2022-08-18T03:22:35.756Z,98936.25
2022-08-18T03:25:23.497Z,98940.47
2022-08-18T03:28:10.929Z,98930.06
2022-08-18T03:30:58.022Z,98929.41
2022-08-18T03:33:46.515Z,98921.63
2022-08-18T03:36:34.925Z,98926.03
2022-08-18T03:39:25.065Z,98923.63
2022-08-18T03:42:12.469Z,98928.00
2022-08-18T03:44:59.998Z,98927.19
2022-08-18T03:47:52.634Z,98917.63
2022-08-18T03:50:39.845Z,98920.38
2022-08-18T03:53:27.319Z,98922.34
2022-08-18T03:56:19.197Z,98927.53
2022-08-18T03:59:12.087Z,98917.34
2022-08-18T04:01:59.404Z,98922.72
2022-08-18T04:04:46.815Z,98917.66
2022-08-18T04:07:38.384Z,98914.28
2022-08-18T04:10:26.327Z,98913.47
2022-08-18T04:13:15.190Z,98923.88
2022-08-18T04:16:02.499Z,98913.66
2022-08-18T04:18:49.757Z,98912.03
2022-08-18T04:21:40.815Z,98912.81
2022-08-18T04:24:31.854Z,98916.41
2022-08-18T04:27:21.733Z,98911.38
2022-08-18T04:30:12.520Z,98915.78
2022-08-18T04:32:59.770Z,98921.78
2022-08-18T04:35:47.339Z,98920.97
2022-08-18T04:38:34.561Z,98917.59
2022-08-18T04:41:23.389Z,98919.34
2022-08-18T04:44:12.561Z,98933.31
2022-08-18T04:47:02.596Z,98936.91
2022-08-18T04:49:50.848Z,98941.63
2022-08-18T04:53:00.783Z,98945.22
2022-08-18T04:55:49.833Z,98956.56
2022-08-18T04:58:37.958Z,98953.19
2022-08-18T05:01:29.815Z,98953.19
2022-08-18T05:04:19.401Z,98955.97
2022-08-18T05:07:07.988Z,98955.16
2022-08-18T05:09:55.195Z,98959.53
2022-08-18T05:12:42.752Z,98955.28
2022-08-18T05:15:42.176Z,98954.47
2022-08-18T05:18:40.552Z,98962.44
2022-08-18T05:21:33.215Z,98978.81
2022-08-18T05:24:23.783Z,98973.00
2022-08-18T05:27:12.754Z,98973.97
2022-08-18T05:30:00.185Z,98979.16
2022-08-18T05:32:49.996Z,98980.16
2022-08-18T05:35:43.137Z,98983.56
2022-08-18T05:38:48.248Z,98987.13
2022-08-18T05:41:39.253Z,98976.75
2022-08-18T05:44:34.254Z,98975.97
2022-08-18T05:47:27.047Z,98976.94
2022-08-18T05:50:18.788Z,98974.50
2022-08-18T05:53:14.065Z,98970.13
2022-08-18T05:56:23.658Z,98968.50
2022-08-18T05:59:13.361Z,98969.63
2022-08-18T06:02:09.157Z,98963.47
2022-08-18T06:05:01.907Z,98967.88
2022-08-18T06:07:56.329Z,98965.44
2022-08-18T06:10:50.247Z,98963.66
2022-08-18T06:13:42.351Z,98968.06
2022-08-18T06:16:50.729Z,98962.03
2022-08-18T06:19:50.614Z,98961.25
2022-08-18T06:22:52.770Z,98960.25
2022-08-18T06:26:01.590Z,98961.25
2022-08-18T06:29:16.324Z,98959.63
2022-08-18T06:32:24.643Z,98958.00
2022-08-18T06:35:20.736Z,98965.59
2022-08-18T06:38:45.813Z,98963.19
2022-08-18T06:41:43.149Z,98975.19
2022-08-18T06:44:41.888Z,98974.38
2022-08-18T06:47:41.617Z,98974.22
2022-08-18T06:50:36.070Z,98987.03
2022-08-18T06:53:54.433Z,98981.03
2022-08-18T06:56:51.447Z,98981.81
2022-08-18T06:59:40.215Z,98984.41
2022-08-18T07:02:43.646Z,98986.03
2022-08-18T07:05:34.272Z,98989.44
2022-08-18T07:08:35.364Z,98991.06
2022-08-18T07:11:28.396Z,99006.63
2022-08-18T07:14:22.144Z,99003.88
2022-08-18T07:17:14.703Z,99006.47
2022-08-18T07:20:09.677Z,99012.44
2022-08-18T07:23:00.281Z,99016.66
2022-08-18T07:25:50.191Z,99014.06
2022-08-18T07:28:41.836Z,99014.06
2022-08-18T07:31:43.450Z,99012.31
2022-08-18T07:34:36.621Z,99018.47
2022-08-18T07:37:29.550Z,99008.88
2022-08-18T07:40:26.091Z,99024.47
2022-08-18T07:43:21.697Z,99023.66
2022-08-18T07:46:20.748Z,99032.41
2022-08-18T07:49:08.078Z,99032.41
2022-08-18T07:52:05.048Z,99028.84
2022-08-18T07:55:10.039Z,99025.59
2022-08-18T07:58:10.359Z,99032.41
2022-08-18T08:01:02.729Z,99020.41
2022-08-18T08:04:00.775Z,99017.81
2022-08-18T08:07:22.975Z,99017.81
2022-08-18T08:10:35.408Z,99015.41
2022-08-18T08:13:54.108Z,99013.78
2022-08-18T08:16:48.824Z,99012.19
2022-08-18T08:20:10.553Z,99005.38
2022-08-18T08:23:17.372Z,99010.56
2022-08-18T08:26:25.179Z,99012.19
2022-08-18T08:29:23.077Z,99005.19
2022-08-18T08:32:17.435Z,99001.63
2022-08-18T08:35:15.604Z,99000.63
2022-08-18T08:38:42.772Z,99006.81
2022-08-18T08:41:39.672Z,99007.59
2022-08-18T08:44:44.984Z,99012.78
2022-08-18T08:48:06.651Z,99010.19
2022-08-18T08:51:02.907Z,99018.00
2022-08-18T08:53:57.503Z,99017.81
2022-08-18T08:56:48.609Z,99023.84
2022-08-18T08:59:37.218Z,99029.03
2022-08-18T09:02:48.935Z,99041.19
2022-08-18T09:05:41.416Z,99051.75
2022-08-18T09:09:18.636Z,99070.25
2022-08-18T09:12:24.887Z,99077.56
2022-08-18T09:15:52.233Z,99080.50
2022-08-18T09:18:58.944Z,99067.72
2022-08-18T09:21:54.762Z,99073.69
2022-08-18T09:24:48.977Z,99071.94
2022-08-18T09:28:09.352Z,99070.94
2022-08-18T09:34:45.331Z,99092.53
2022-08-18T09:38:08.511Z,99097.72
2022-08-18T09:41:18.618Z,99098.50
2022-08-18T09:44:12.072Z,99089.91
2022-08-18T09:47:10.232Z,99077.75
2022-08-18T09:49:58.487Z,99064.59
2022-08-18T09:52:50.505Z,99065.41
2022-08-18T09:56:04.792Z,99067.00
2022-08-18T09:59:02.139Z,99064.25
2022-08-18T10:01:52.545Z,99062.66
2022-08-18T10:04:49.148Z,99063.25
2022-08-18T10:07:43.997Z,99070.88
2022-08-18T10:10:59.476Z,99068.13
2022-08-18T10:14:04.332Z,99071.38
2022-08-18T10:20:28.594Z,99079.16
2022-08-18T10:24:03.127Z,99065.38
2022-08-18T10:27:04.048Z,99060.19
2022-08-18T10:29:58.493Z,99069.41
2022-08-18T10:32:52.107Z,99067.63
2022-08-18T10:36:03.215Z,99077.03
2022-08-18T10:38:53.515Z,99074.25
2022-08-18T10:41:58.069Z,99068.91
2022-08-18T10:44:48.446Z,99064.69
2022-08-18T10:47:37.513Z,99052.53
2022-08-18T10:50:28.456Z,99058.50
2022-08-18T10:53:44.390Z,99048.13
2022-08-18T10:56:41.934Z,99046.50
2022-08-18T10:59:48.968Z,99020.38
2022-08-18T11:03:21.060Z,99011.78
2022-08-18T11:06:21.231Z,99001.22
2022-08-18T11:09:10.364Z,98983.72
2022-08-18T11:12:02.275Z,98979.94
2022-08-18T11:18:43.266Z,98988.69
2022-08-18T11:21:42.601Z,98985.91
2022-08-18T11:24:35.353Z,98963.00
2022-08-18T11:27:28.953Z,98954.66
2022-08-18T11:30:17.765Z,98948.31
2022-08-18T11:33:05.943Z,98958.16
2022-08-18T11:35:59.452Z,98958.47
2022-08-18T11:38:56.627Z,98959.91
2022-08-18T11:41:50.257Z,98955.19
2022-08-18T11:44:41.009Z,98963.41
2022-08-18T11:47:30.174Z,98964.06
2022-08-18T11:50:29.700Z,98966.28
2022-08-18T11:53:26.570Z,98978.13
2022-08-18T11:56:30.940Z,98966.56
2022-08-18T11:59:54.303Z,98966.22
2022-08-18T12:02:43.375Z,98967.03
2022-08-18T12:05:33.765Z,98963.25
2022-08-18T12:08:57.011Z,98963.91
2022-08-18T12:11:54.794Z,98966.94
2022-08-18T12:15:03.601Z,98966.78
2022-08-18T12:17:55.152Z,98966.59
2022-08-18T12:20:42.257Z,98969.03
2022-08-18T12:23:44.442Z,98961.06
2022-08-18T12:26:38.523Z,98962.69
2022-08-18T12:29:36.753Z,98960.88
2022-08-18T12:35:42.241Z,98953.72
2022-08-18T12:38:29.570Z,98954.34
2022-08-18T12:41:22.887Z,98955.97
2022-08-18T12:44:13.134Z,98948.16
2022-08-18T12:47:03.405Z,98942.78
2022-08-18T12:49:51.572Z,98942.59
2022-08-18T12:52:39.677Z,98940.63
2022-08-18T12:55:43.506Z,98930.84
2022-08-18T12:58:32.842Z,98929.88
2022-08-18T13:01:26.577Z,98930.53
2022-08-18T13:04:15.618Z,98924.16
2022-08-18T13:07:07.989Z,98917.75
2022-08-18T13:09:56.228Z,98909.97
2022-08-18T13:12:43.332Z,98907.19
2022-08-18T13:15:30.838Z,98909.63
2022-08-18T13:18:19.947Z,98908.63
2022-08-18T13:21:16.724Z,98904.25
2022-08-18T13:24:05.242Z,98900.66
2022-08-18T13:26:56.961Z,98898.84
2022-08-18T13:29:44.336Z,98888.25
2022-08-18T13:32:38.351Z,98893.28
2022-08-18T13:35:44.163Z,98879.28
2022-08-18T13:38:31.998Z,98889.69
2022-08-18T13:41:19.186Z,98879.09
2022-08-18T13:44:11.601Z,98877.16
2022-08-18T13:46:59.529Z,98870.13
2022-08-18T13:49:58.206Z,98871.75
2022-08-18T13:52:48.203Z,98856.16
2022-08-18T13:55:36.953Z,98855.97
2022-08-18T13:58:24.220Z,98849.59
2022-08-18T14:04:22.531Z,98847.78
2022-08-18T14:07:12.556Z,98852.00
2022-08-18T14:10:10.683Z,98848.25
2022-08-18T14:13:20.194Z,98847.41
2022-08-18T14:16:10.408Z,98844.03
2022-08-18T14:19:15.028Z,98835.25
2022-08-18T14:22:23.271Z,98839.47
2022-08-18T14:25:31.860Z,98834.06
2022-08-18T14:28:24.776Z,98831.47
2022-08-18T14:31:12.999Z,98833.88
2022-08-18T14:34:04.089Z,98836.47
2022-08-18T14:36:51.921Z,98836.47
2022-08-18T14:39:40.353Z,98826.88
2022-08-18T14:42:41.156Z,98830.28
2022-08-18T14:45:35.316Z,98838.09
2022-08-18T14:48:24.173Z,98837.09
2022-08-18T14:51:11.968Z,98835.31
2022-08-18T14:53:59.023Z,98837.72
2022-08-18T14:56:46.892Z,98840.94
2022-08-18T14:59:37.910Z,98837.34
2022-08-18T15:02:25.640Z,98836.38
2022-08-18T15:05:19.548Z,98835.38
2022-08-18T15:08:11.860Z,98845.78
2022-08-18T15:10:59.713Z,98844.78
2022-08-18T15:13:47.267Z,98855.19
2022-08-18T15:16:38.717Z,98847.22
2022-08-18T15:19:58.513Z,98853.22
2022-08-18T15:22:56.874Z,98845.41
2022-08-18T15:25:50.930Z,98833.38
2022-08-18T15:28:38.991Z,98837.59
2022-08-18T15:34:46.909Z,98836.81
2022-08-18T15:37:39.572Z,98845.41
2022-08-18T15:40:41.437Z,98841.00
2022-08-18T15:43:31.657Z,98848.63
2022-08-18T15:46:19.148Z,98848.63
2022-08-18T15:49:11.322Z,98846.84
2022-08-18T15:52:03.862Z,98843.41
2022-08-18T15:54:51.266Z,98847.63
2022-08-18T15:57:40.000Z,98846.84
2022-08-18T16:00:32.079Z,98843.41
2022-08-18T16:03:21.313Z,98836.63
2022-08-18T16:06:14.358Z,98832.22
2022-08-18T16:09:08.868Z,98836.63
2022-08-18T16:12:00.241Z,98840.03
2022-08-18T16:14:48.124Z,98841.81
2022-08-18T16:17:35.534Z,98847.03
2022-08-18T16:20:25.407Z,98850.63
2022-08-18T16:23:13.892Z,98851.41
2022-08-18T16:26:04.409Z,98847.34
2022-08-18T16:28:54.047Z,98848.31
2022-08-18T16:31:41.577Z,98851.22
2022-08-18T16:34:30.964Z,98846.41
2022-08-18T16:37:18.121Z,98849.19
2022-08-18T16:40:08.545Z,98843.38
2022-08-18T16:42:59.401Z,98842.75
2022-08-18T16:45:48.612Z,98838.53
2022-08-18T16:48:38.118Z,98839.53
2022-08-18T16:51:28.159Z,98842.94
2022-08-18T16:54:16.449Z,98846.69
2022-08-18T16:57:03.849Z,98838.09
2022-08-18T17:00:09.894Z,98832.91
2022-08-18T17:03:14.370Z,98836.47
2022-08-18T17:06:03.357Z,98828.03
2022-08-18T17:08:50.590Z,98827.06
2022-08-18T17:11:48.066Z,98819.44
2022-08-18T17:14:39.512Z,98814.44
2022-08-18T17:17:28.284Z,98817.03
2022-08-18T17:20:18.797Z,98815.22
2022-08-18T17:23:07.747Z,98817.03
2022-08-18T17:25:58.598Z,98811.19
2022-08-18T17:28:53.879Z,98808.59
2022-08-18T17:31:47.465Z,98807.00
2022-08-18T17:34:41.934Z,98809.59
2022-08-18T17:37:31.440Z,98815.78
2022-08-18T17:40:24.437Z,98811.56
2022-08-18T17:43:18.690Z,98813.38
2022-08-18T17:46:14.050Z,98810.78
2022-08-18T17:49:05.322Z,98808.38
2022-08-18T17:51:56.600Z,98813.56
2022-08-18T17:54:49.415Z,98813.56
2022-08-18T17:57:43.567Z,98817.94
2022-08-18T18:00:46.237Z,98818.94
2022-08-18T18:03:34.225Z,98831.13
2022-08-18T18:06:33.562Z,98825.13
2022-08-18T18:09:32.709Z,98826.91
2022-08-18T18:12:24.673Z,98822.72
2022-08-18T18:15:15.459Z,98827.94
2022-08-18T18:18:26.639Z,98821.09
2022-08-18T18:21:22.929Z,98819.47
2022-08-18T18:24:35.835Z,98821.44
2022-08-18T18:27:35.610Z,98827.47
2022-08-18T18:30:27.549Z,98830.25
2022-08-18T18:33:18.420Z,98832.88
2022-08-18T18:36:06.779Z,98835.66
2022-08-18T18:39:11.140Z,98834.81
2022-08-18T18:42:19.481Z,98842.81
2022-08-18T18:45:09.703Z,98843.00
2022-08-18T18:48:06.399Z,98852.59
2022-08-18T18:51:10.807Z,98854.56
2022-08-18T18:54:07.343Z,98852.16
2022-08-18T18:56:57.439Z,98860.13
2022-08-18T19:00:02.410Z,98855.13
2022-08-18T19:03:03.844Z,98854.47
2022-08-18T19:06:16.758Z,98862.66
2022-08-18T19:09:14.061Z,98870.44
2022-08-18T19:12:13.708Z,98869.63
2022-08-18T19:15:14.753Z,98874.03
2022-08-18T19:18:06.441Z,98872.41
2022-08-18T19:22:01.948Z,98874.22
2022-08-18T19:24:14.824Z,98872.78
2022-08-18T19:27:06.039Z,98876.34
2022-08-18T19:29:58.329Z,98874.78
2022-08-18T19:32:52.003Z,98875.75
2022-08-18T19:35:58.798Z,98874.31
2022-08-18T19:38:55.561Z,98879.03
2022-08-18T19:41:51.096Z,98878.22
2022-08-18T19:44:51.073Z,98874.19
2022-08-18T19:48:00.534Z,98871.13
2022-08-18T19:50:54.302Z,98866.94
2022-08-18T19:54:14.453Z,98867.09
2022-08-18T19:57:18.164Z,98864.69
2022-08-18T20:00:22.886Z,98870.25
2022-08-18T20:04:03.802Z,98869.16
2022-08-18T20:07:20.510Z,98865.94
2022-08-18T20:10:36.304Z,98858.50
2022-08-18T20:13:35.281Z,98859.47
2022-08-18T20:16:43.956Z,98860.50
2022-08-18T20:20:13.599Z,98868.00
2022-08-18T20:23:02.000Z,98884.75
2022-08-18T20:25:50.079Z,98884.28
2022-08-18T20:28:41.745Z,98888.88
2022-08-18T20:31:52.249Z,98890.03
2022-08-18T20:34:39.898Z,98887.59
2022-08-18T20:37:31.851Z,98888.41
2022-08-18T20:40:42.901Z,98890.22
2022-08-18T20:43:33.765Z,98896.19
2022-08-18T20:46:37.549Z,98902.38
2022-08-18T20:49:50.415Z,98892.94
2022-08-18T20:52:48.945Z,98899.16
2022-08-18T20:55:46.817Z,98899.94
2022-08-18T20:58:38.586Z,98904.34
2022-08-18T21:01:30.626Z,98902.72
2022-08-18T21:04:17.739Z,98896.75
2022-08-18T21:07:13.085Z,98902.72
2022-08-18T21:10:12.802Z,98891.69
2022-08-18T21:13:04.214Z,98885.69
2022-08-18T21:15:51.507Z,98883.09
2022-08-18T21:18:41.018Z,98878.88
2022-08-18T21:21:32.775Z,98878.88
2022-08-18T21:24:33.810Z,98877.31
2022-08-18T21:27:28.106Z,98881.84
2022-08-18T21:30:21.386Z,98887.84
2022-08-18T21:33:21.200Z,98887.03
2022-08-18T21:36:14.622Z,98886.25
2022-08-18T21:39:09.363Z,98892.41
2022-08-18T21:41:59.541Z,98889.81
2022-08-18T21:44:49.974Z,98889.03
2022-08-18T21:47:37.215Z,98896.16
2022-08-18T21:50:27.154Z,98898.75
2022-08-18T21:53:30.330Z,98891.16
2022-08-18T21:56:24.257Z,98901.53
2022-08-18T21:59:14.565Z,98905.94
2022-08-18T22:02:03.930Z,98911.13
2022-08-18T22:04:51.267Z,98918.91
2022-08-18T22:07:47.287Z,98921.50
2022-08-18T22:10:52.529Z,98931.25
2022-08-18T22:13:59.728Z,98938.25
2022-08-18T22:17:01.893Z,98942.00
2022-08-18T22:19:50.631Z,98946.38
2022-08-18T22:22:55.118Z,98954.97
2022-08-18T22:25:43.385Z,98946.38
2022-08-18T22:28:30.699Z,98952.56
2022-08-18T22:31:21.299Z,98952.38
2022-08-18T22:34:11.718Z,98951.72
2022-08-18T22:37:04.259Z,98945.56
2022-08-18T22:39:55.731Z,98933.56
2022-08-18T22:42:43.328Z,98935.50
2022-08-18T22:45:30.679Z,98940.69
2022-08-18T22:48:18.099Z,98937.28
2022-08-18T22:51:06.513Z,98936.47
2022-08-18T22:53:56.815Z,98934.84
2022-08-18T22:56:55.211Z,98936.47
2022-08-18T22:59:46.790Z,98934.84
2022-08-18T23:02:34.407Z,98944.44
2022-08-18T23:05:21.786Z,98934.84
2022-08-18T23:08:09.052Z,98940.22
2022-08-18T23:10:57.744Z,98933.41
2022-08-18T23:13:45.249Z,98943.00
2022-08-18T23:16:32.606Z,98941.56
2022-08-18T23:19:22.241Z,98931.34
2022-08-18T23:22:11.073Z,98931.53
2022-08-18T23:24:58.626Z,98942.09
2022-08-18T23:27:47.361Z,98946.00
2022-08-18T23:30:34.968Z,98952.19
2022-08-18T23:33:22.065Z,98964.50
2022-08-18T23:36:10.622Z,98957.88
2022-08-18T23:38:58.730Z,98964.84
2022-08-18T23:41:45.955Z,98972.66
2022-08-18T23:44:35.455Z,98971.84
2022-08-18T23:47:22.676Z,98976.22
2022-08-18T23:50:11.893Z,98971.84
2022-08-18T23:53:01.585Z,98969.25
2022-08-18T23:55:48.709Z,98977.84
2022-08-18T23:58:36.165Z,98971.84
